Terminal Aerodrome Forecast
Issued by NWS

Home | Current Version | Previous Version | Graphics & Text | Print | Product List | Glossary On
Versions: 1 2 3 4 5 6 7 8 9 10 11 12 13 14 15 16
000
FTUS43 KBIS 192210 AAA
TAFMOT
TAF AMD
KMOT 192210Z 1922/2018 20005KT P6SM SCT250
     FM201200 17005KT 6SM BR BKN070
     FM201600 16005KT 5SM BR BKN040=

USA.gov is the U.S. government's official web portal to all federal, state and local government web resources and services.